createdAt,value
2018-09-18T00:00:03.297Z,19.40
2018-09-18T00:02:31.449Z,19.40
2018-09-18T00:04:59.615Z,19.40
2018-09-18T00:07:27.796Z,19.40
2018-09-18T00:09:55.960Z,19.40
2018-09-18T00:12:24.116Z,19.40
2018-09-18T00:14:52.278Z,19.40
2018-09-18T00:17:20.685Z,19.40
2018-09-18T00:19:48.873Z,19.40
2018-09-18T00:22:17.022Z,19.40
2018-09-18T00:24:45.182Z,19.50
2018-09-18T00:27:13.343Z,19.50
2018-09-18T00:29:41.501Z,19.50
2018-09-18T00:32:09.643Z,19.50
2018-09-18T00:34:37.804Z,19.50
2018-09-18T00:37:05.970Z,19.50
2018-09-18T00:39:34.132Z,19.50
2018-09-18T00:42:02.287Z,19.50
2018-09-18T00:44:30.441Z,19.50
2018-09-18T00:46:58.594Z,19.50
2018-09-18T00:49:26.765Z,19.50
2018-09-18T00:51:54.911Z,19.50
2018-09-18T00:54:23.059Z,19.50
2018-09-18T00:56:51.217Z,19.50
2018-09-18T00:59:19.375Z,19.50
2018-09-18T01:01:47.558Z,19.50
2018-09-18T01:04:15.722Z,19.50
2018-09-18T01:06:43.885Z,19.50
2018-09-18T01:09:12.048Z,19.50
2018-09-18T01:11:40.505Z,19.50
2018-09-18T01:14:08.666Z,19.50
2018-09-18T01:16:37.058Z,19.50
2018-09-18T01:19:05.242Z,19.50
2018-09-18T01:21:33.397Z,19.50
2018-09-18T01:24:01.554Z,19.50
2018-09-18T01:26:29.727Z,19.50
2018-09-18T01:28:57.877Z,19.50
2018-09-18T01:31:26.051Z,19.50
2018-09-18T01:33:54.252Z,19.40
2018-09-18T01:36:22.410Z,19.40
2018-09-18T01:38:50.593Z,19.50
2018-09-18T01:41:18.758Z,19.50
2018-09-18T01:43:47.151Z,19.50
2018-09-18T01:46:15.234Z,19.50
2018-09-18T01:48:43.395Z,19.40
2018-09-18T01:51:11.607Z,19.40
2018-09-18T01:53:39.770Z,19.40
2018-09-18T01:56:07.977Z,19.40
2018-09-18T01:58:36.122Z,19.40
2018-09-18T02:01:04.278Z,19.40
2018-09-18T02:03:32.402Z,19.40
2018-09-18T02:06:00.552Z,19.40
2018-09-18T02:08:28.718Z,19.40
2018-09-18T02:10:56.870Z,19.40
2018-09-18T02:13:25.014Z,19.30
2018-09-18T02:15:53.178Z,19.30
2018-09-18T02:18:21.315Z,19.30
2018-09-18T02:20:49.463Z,19.30
2018-09-18T02:23:17.622Z,19.30
2018-09-18T02:25:45.765Z,19.30
2018-09-18T02:28:13.941Z,19.30
2018-09-18T02:30:42.078Z,19.30
2018-09-18T02:33:10.227Z,19.30
2018-09-18T02:35:38.379Z,19.30
2018-09-18T02:38:06.539Z,19.30
2018-09-18T02:40:34.681Z,19.30
2018-09-18T02:43:02.832Z,19.30
2018-09-18T02:45:30.991Z,19.30
2018-09-18T02:47:59.155Z,19.30
2018-09-18T02:50:27.318Z,19.30
2018-09-18T02:52:55.496Z,19.20
2018-09-18T02:55:23.663Z,19.20
2018-09-18T02:57:51.816Z,19.20
2018-09-18T03:00:19.987Z,19.20
2018-09-18T03:02:48.121Z,19.20
2018-09-18T03:05:16.395Z,19.20
2018-09-18T03:07:44.533Z,19.20
2018-09-18T03:10:12.671Z,19.20
2018-09-18T03:12:40.824Z,19.20
2018-09-18T03:15:08.958Z,19.20
2018-09-18T03:17:37.125Z,19.20
2018-09-18T03:20:05.533Z,19.20
2018-09-18T03:22:33.662Z,19.10
2018-09-18T03:25:01.810Z,19.10
2018-09-18T03:27:30.046Z,19.10
2018-09-18T03:29:58.107Z,19.10
2018-09-18T03:32:26.239Z,19.10
2018-09-18T03:34:54.379Z,19.10
2018-09-18T03:37:22.510Z,19.00
2018-09-18T03:39:50.663Z,19.00
2018-09-18T03:42:18.787Z,19.00
2018-09-18T03:44:46.936Z,19.00
2018-09-18T03:47:15.076Z,19.00
2018-09-18T03:49:43.223Z,19.00
2018-09-18T03:52:11.350Z,19.00
2018-09-18T03:54:39.547Z,19.00
2018-09-18T03:57:07.679Z,19.00
2018-09-18T03:59:35.835Z,19.00
2018-09-18T04:02:03.978Z,18.90
2018-09-18T04:04:32.113Z,18.90
2018-09-18T04:07:00.277Z,18.90
2018-09-18T04:09:28.410Z,18.90
2018-09-18T04:11:56.549Z,18.90
2018-09-18T04:14:24.697Z,18.80
2018-09-18T04:16:52.836Z,18.80
2018-09-18T04:19:20.956Z,18.80
2018-09-18T04:21:49.087Z,18.80
2018-09-18T04:24:17.228Z,18.70
2018-09-18T04:26:45.387Z,18.70
2018-09-18T04:29:13.514Z,18.60
2018-09-18T04:31:41.813Z,18.50
2018-09-18T04:34:09.938Z,18.50
2018-09-18T04:36:38.094Z,18.50
2018-09-18T04:39:09.756Z,18.40
2018-09-18T04:41:37.963Z,18.40
2018-09-18T04:44:06.406Z,18.40
2018-09-18T04:46:34.550Z,18.40
2018-09-18T04:49:02.683Z,18.40
2018-09-18T04:51:30.824Z,18.40
2018-09-18T04:53:58.991Z,18.40
2018-09-18T04:56:27.391Z,18.40
2018-09-18T04:58:55.522Z,18.30
2018-09-18T05:01:23.698Z,18.30
2018-09-18T05:03:51.845Z,18.30
2018-09-18T05:06:20.042Z,18.30
2018-09-18T05:08:48.172Z,18.30
2018-09-18T05:11:16.341Z,18.20
2018-09-18T05:13:44.510Z,18.20
2018-09-18T05:16:12.670Z,18.20
2018-09-18T05:18:40.849Z,18.10
2018-09-18T05:21:09.003Z,18.10
2018-09-18T05:23:37.159Z,18.00
2018-09-18T05:26:05.303Z,18.00
2018-09-18T05:28:33.454Z,18.00
2018-09-18T05:31:01.642Z,17.90
2018-09-18T05:33:30.216Z,17.90
2018-09-18T05:35:58.322Z,17.90
2018-09-18T05:38:26.495Z,17.90
2018-09-18T05:40:54.645Z,17.90
2018-09-18T05:43:22.953Z,17.90
2018-09-18T05:45:51.155Z,17.90
2018-09-18T05:48:19.345Z,17.90
2018-09-18T05:50:47.526Z,17.90
2018-09-18T05:53:15.686Z,17.90
2018-09-18T05:55:43.869Z,18.00
2018-09-18T05:58:12.056Z,18.00
2018-09-18T06:00:40.203Z,18.00
2018-09-18T06:03:08.352Z,18.00
2018-09-18T06:05:36.510Z,18.10
2018-09-18T06:08:04.658Z,18.10
2018-09-18T06:10:32.799Z,18.20
2018-09-18T06:13:00.958Z,18.20
2018-09-18T06:15:29.113Z,18.20
2018-09-18T06:17:57.275Z,18.30
2018-09-18T06:20:25.457Z,18.30
2018-09-18T06:22:53.586Z,18.30
2018-09-18T06:25:21.895Z,18.40
2018-09-18T06:27:50.111Z,18.40
2018-09-18T06:30:18.257Z,18.50
2018-09-18T06:32:46.453Z,18.50
2018-09-18T06:35:14.954Z,18.50
2018-09-18T06:37:43.074Z,18.60
2018-09-18T06:40:11.399Z,18.60
2018-09-18T06:42:39.542Z,18.70
2018-09-18T06:45:07.663Z,18.70
2018-09-18T06:47:35.802Z,18.70
2018-09-18T06:50:03.966Z,18.80
2018-09-18T06:52:32.095Z,18.80
2018-09-18T06:55:00.239Z,18.90
2018-09-18T06:57:28.382Z,19.00
2018-09-18T06:59:56.521Z,19.10
2018-09-18T07:02:24.661Z,19.20
2018-09-18T07:04:52.830Z,19.30
2018-09-18T07:07:20.992Z,19.40
2018-09-18T07:09:49.154Z,19.50
2018-09-18T07:12:17.313Z,19.60
2018-09-18T07:14:45.470Z,19.60
2018-09-18T07:17:13.658Z,19.70
2018-09-18T07:19:41.817Z,19.80
2018-09-18T07:22:09.950Z,19.90
2018-09-18T07:24:38.073Z,20.00
2018-09-18T07:27:06.257Z,20.10
2018-09-18T07:29:34.374Z,20.20
2018-09-18T07:32:02.542Z,20.30
2018-09-18T07:34:30.746Z,20.40
2018-09-18T07:36:58.886Z,20.50
2018-09-18T07:39:27.029Z,20.60
2018-09-18T07:41:55.207Z,20.70
2018-09-18T07:44:23.351Z,20.80
2018-09-18T07:46:51.491Z,20.90
2018-09-18T07:49:19.630Z,21.00
2018-09-18T07:51:47.770Z,21.10
2018-09-18T07:54:15.946Z,21.20
2018-09-18T07:56:44.094Z,21.30
2018-09-18T07:59:12.226Z,21.40
2018-09-18T08:01:40.410Z,21.50
2018-09-18T08:04:08.567Z,21.60
2018-09-18T08:06:36.750Z,21.80
2018-09-18T08:09:08.810Z,21.90
2018-09-18T08:11:37.050Z,22.00
2018-09-18T08:14:05.195Z,22.10
2018-09-18T08:16:33.373Z,22.20
2018-09-18T08:19:01.623Z,22.30
2018-09-18T08:21:29.822Z,22.40
2018-09-18T08:23:57.954Z,22.50
2018-09-18T08:26:26.128Z,22.60
2018-09-18T08:28:54.369Z,22.70
2018-09-18T08:31:22.506Z,22.80
2018-09-18T08:33:50.716Z,22.90
2018-09-18T08:36:18.818Z,23.00
2018-09-18T08:38:46.999Z,23.00
2018-09-18T08:41:15.189Z,23.10
2018-09-18T08:43:43.378Z,23.20
2018-09-18T08:46:11.565Z,23.30
2018-09-18T08:48:43.956Z,23.40
2018-09-18T08:51:12.122Z,23.50
2018-09-18T08:53:40.246Z,23.60
2018-09-18T08:56:08.397Z,23.60
2018-09-18T08:58:36.579Z,23.70
2018-09-18T09:01:04.740Z,23.80
2018-09-18T09:03:32.884Z,23.90
2018-09-18T09:06:01.138Z,24.00
2018-09-18T09:08:29.238Z,24.10
2018-09-18T09:10:57.412Z,24.20
2018-09-18T09:13:25.594Z,24.40
2018-09-18T09:15:53.735Z,24.40
2018-09-18T09:18:21.973Z,24.50
2018-09-18T09:20:50.134Z,24.60
2018-09-18T09:23:18.232Z,24.80
2018-09-18T09:25:46.395Z,24.90
2018-09-18T09:28:14.539Z,25.00
2018-09-18T09:30:42.761Z,25.10
2018-09-18T09:33:11.175Z,25.20
2018-09-18T09:35:39.482Z,25.30
2018-09-18T09:38:07.636Z,25.40
2018-09-18T09:40:35.791Z,25.50
2018-09-18T09:43:03.922Z,25.60
2018-09-18T09:45:32.210Z,25.70
2018-09-18T09:48:00.370Z,25.80
2018-09-18T09:50:28.583Z,25.80
2018-09-18T09:52:56.759Z,25.90
2018-09-18T09:55:24.943Z,26.00
2018-09-18T09:57:53.095Z,26.10
2018-09-18T10:00:26.955Z,26.20
2018-09-18T10:02:55.187Z,26.30
2018-09-18T10:05:23.391Z,26.30
2018-09-18T10:07:51.590Z,26.40
2018-09-18T10:10:19.750Z,26.50
2018-09-18T10:12:47.942Z,26.60
2018-09-18T10:15:16.130Z,26.70
2018-09-18T10:17:44.392Z,26.80
2018-09-18T10:20:12.547Z,26.90
2018-09-18T10:22:40.719Z,26.90
2018-09-18T10:25:08.909Z,27.00
2018-09-18T10:27:37.055Z,27.10
2018-09-18T10:30:05.984Z,27.20
2018-09-18T10:32:34.132Z,27.30
2018-09-18T10:35:02.408Z,27.30
2018-09-18T10:37:30.523Z,27.30
2018-09-18T10:39:58.666Z,27.40
2018-09-18T10:42:26.814Z,27.50
2018-09-18T10:44:54.969Z,27.60
2018-09-18T10:47:23.109Z,27.70
2018-09-18T10:49:51.252Z,27.80
2018-09-18T10:52:19.490Z,27.80
2018-09-18T10:54:47.630Z,27.90
2018-09-18T10:57:15.793Z,27.90
2018-09-18T10:59:43.992Z,28.00
2018-09-18T11:02:12.175Z,28.00
2018-09-18T11:04:40.356Z,28.00
2018-09-18T11:07:08.580Z,28.10
2018-09-18T11:09:36.671Z,28.10
2018-09-18T11:12:04.960Z,28.10
2018-09-18T11:14:33.117Z,28.10
2018-09-18T11:17:01.324Z,28.20
2018-09-18T11:19:29.495Z,28.20
2018-09-18T11:21:57.742Z,28.10
2018-09-18T11:24:25.862Z,28.10
2018-09-18T11:26:53.980Z,28.10
2018-09-18T11:29:22.190Z,28.10
2018-09-18T11:31:50.345Z,28.10
2018-09-18T11:34:18.574Z,28.10
2018-09-18T11:36:46.722Z,28.10
2018-09-18T11:39:14.906Z,28.10
2018-09-18T11:41:43.147Z,28.10
2018-09-18T11:44:11.307Z,28.10
2018-09-18T11:46:39.511Z,28.10
2018-09-18T11:49:07.620Z,28.10
2018-09-18T11:51:35.779Z,28.10
2018-09-18T11:54:03.939Z,28.10
2018-09-18T11:56:32.107Z,28.10
2018-09-18T11:59:00.254Z,28.10
2018-09-18T12:01:28.411Z,28.10
2018-09-18T12:03:56.570Z,28.10
2018-09-18T12:06:24.722Z,28.10
2018-09-18T12:08:52.965Z,28.10
2018-09-18T12:11:21.044Z,28.10
2018-09-18T12:13:49.191Z,28.00
2018-09-18T12:16:17.338Z,28.00
2018-09-18T12:18:45.503Z,28.00
2018-09-18T12:21:13.656Z,27.90
2018-09-18T12:23:41.810Z,27.90
2018-09-18T12:26:09.966Z,27.90
2018-09-18T12:28:38.161Z,27.90
2018-09-18T12:31:06.282Z,27.90
2018-09-18T12:33:34.445Z,27.90
2018-09-18T12:36:02.611Z,28.00
2018-09-18T12:38:30.776Z,28.00
2018-09-18T12:40:58.931Z,28.00
2018-09-18T12:43:27.100Z,28.10
2018-09-18T12:45:55.246Z,28.10
2018-09-18T12:48:23.400Z,28.10
2018-09-18T12:50:51.628Z,28.10
2018-09-18T12:53:19.746Z,28.10
2018-09-18T12:55:47.898Z,28.10
2018-09-18T12:58:16.092Z,28.10
2018-09-18T13:00:44.206Z,28.10
2018-09-18T13:03:12.347Z,28.10
2018-09-18T13:05:40.567Z,28.10
2018-09-18T13:08:08.734Z,28.10
2018-09-18T13:10:36.826Z,28.10
2018-09-18T13:13:05.077Z,28.10
2018-09-18T13:15:33.215Z,28.10
2018-09-18T13:18:01.372Z,28.10
2018-09-18T13:20:29.506Z,28.10
2018-09-18T13:22:57.815Z,28.10
2018-09-18T13:25:25.963Z,28.20
2018-09-18T13:27:54.167Z,28.20
2018-09-18T13:30:22.331Z,28.20
2018-09-18T13:32:50.394Z,28.20
2018-09-18T13:35:18.564Z,28.20
2018-09-18T13:37:46.721Z,28.20
2018-09-18T13:40:15.058Z,28.20
2018-09-18T13:42:43.205Z,28.20
2018-09-18T13:45:11.563Z,28.30
2018-09-18T13:47:39.743Z,28.30
2018-09-18T13:50:08.281Z,28.30
2018-09-18T13:52:36.455Z,28.30
2018-09-18T13:55:04.699Z,28.30
2018-09-18T13:57:32.937Z,28.40
2018-09-18T14:00:01.069Z,28.30
2018-09-18T14:02:29.294Z,28.30
2018-09-18T14:04:57.483Z,28.30
2018-09-18T14:07:25.535Z,28.40
2018-09-18T14:09:53.723Z,28.30
2018-09-18T14:12:21.847Z,28.40
2018-09-18T14:14:50.163Z,28.40
2018-09-18T14:17:18.188Z,28.40
2018-09-18T14:19:46.467Z,28.40
2018-09-18T14:22:14.619Z,28.40
2018-09-18T14:24:42.781Z,28.40
2018-09-18T14:27:10.945Z,28.40
2018-09-18T14:29:39.186Z,28.40
2018-09-18T14:32:07.431Z,28.40
2018-09-18T14:34:35.555Z,28.40
2018-09-18T14:37:03.838Z,28.40
2018-09-18T14:39:31.987Z,28.40
2018-09-18T14:42:00.130Z,28.40
2018-09-18T14:44:28.292Z,28.40
2018-09-18T14:46:56.530Z,28.40
2018-09-18T14:49:24.635Z,28.40
2018-09-18T14:51:52.846Z,28.40
2018-09-18T14:54:21.003Z,28.40
2018-09-18T14:56:49.147Z,28.40
2018-09-18T14:59:17.295Z,28.40
2018-09-18T15:01:45.485Z,28.40
2018-09-18T15:04:14.838Z,28.50
2018-09-18T15:06:42.986Z,28.40
2018-09-18T15:09:11.670Z,28.40
2018-09-18T15:11:39.905Z,28.50
2018-09-18T15:14:08.459Z,28.40
2018-09-18T15:16:37.175Z,28.40
2018-09-18T15:19:05.452Z,28.40
2018-09-18T15:21:33.728Z,28.30
2018-09-18T15:24:01.863Z,28.30
2018-09-18T15:26:30.130Z,28.30
2018-09-18T15:28:58.278Z,28.30
2018-09-18T15:31:26.426Z,28.30
2018-09-18T15:33:54.639Z,28.30
2018-09-18T15:36:22.775Z,28.30
2018-09-18T15:38:50.924Z,28.30
2018-09-18T15:41:19.081Z,28.30
2018-09-18T15:43:47.229Z,28.20
2018-09-18T15:46:15.379Z,28.20
2018-09-18T15:48:43.608Z,28.20
2018-09-18T15:51:11.867Z,28.20
2018-09-18T15:53:39.917Z,28.10
2018-09-18T15:56:08.070Z,28.10
2018-09-18T15:58:37.057Z,28.10
2018-09-18T16:01:05.198Z,28.10
2018-09-18T16:03:33.334Z,28.10
2018-09-18T16:06:01.478Z,28.00
2018-09-18T16:08:29.603Z,28.00
2018-09-18T16:10:57.754Z,28.00
2018-09-18T16:13:25.902Z,27.90
2018-09-18T16:15:54.080Z,27.90
2018-09-18T16:18:22.284Z,27.90
2018-09-18T16:20:50.458Z,27.90
2018-09-18T16:23:18.612Z,27.90
2018-09-18T16:25:46.847Z,27.90
2018-09-18T16:28:14.990Z,27.80
2018-09-18T16:30:43.154Z,27.80
2018-09-18T16:33:11.263Z,27.80
2018-09-18T16:35:39.480Z,27.80
2018-09-18T16:38:07.683Z,27.80
2018-09-18T16:40:35.922Z,27.80
2018-09-18T16:43:04.313Z,27.80
2018-09-18T16:45:32.442Z,27.80
2018-09-18T16:48:00.587Z,27.70
2018-09-18T16:50:28.738Z,27.70
2018-09-18T16:52:56.899Z,27.70
2018-09-18T16:55:25.047Z,27.70
2018-09-18T16:57:53.322Z,27.60
2018-09-18T17:00:21.580Z,27.60
2018-09-18T17:02:49.701Z,27.60
2018-09-18T17:05:17.913Z,27.50
2018-09-18T17:07:46.083Z,27.50
2018-09-18T17:10:14.291Z,27.50
2018-09-18T17:12:42.469Z,27.40
2018-09-18T17:15:10.634Z,27.40
2018-09-18T17:17:38.836Z,27.30
2018-09-18T17:20:07.007Z,27.30
2018-09-18T17:22:35.352Z,27.30
2018-09-18T17:25:04.649Z,27.30
2018-09-18T17:27:32.918Z,27.20
2018-09-18T17:30:01.781Z,27.20
2018-09-18T17:32:30.067Z,27.10
2018-09-18T17:34:58.287Z,27.10
2018-09-18T17:37:26.488Z,27.10
2018-09-18T17:39:54.739Z,27.00
2018-09-18T17:42:22.859Z,26.90
2018-09-18T17:44:51.033Z,26.90
2018-09-18T17:47:19.206Z,26.80
2018-09-18T17:49:47.398Z,26.80
2018-09-18T17:52:15.546Z,26.70
2018-09-18T17:54:43.708Z,26.70
2018-09-18T17:57:11.919Z,26.70
2018-09-18T17:59:40.170Z,26.60
2018-09-18T18:02:09.250Z,26.60
2018-09-18T18:04:37.529Z,26.60
2018-09-18T18:07:05.768Z,26.60
2018-09-18T18:09:33.958Z,26.50
2018-09-18T18:12:02.219Z,26.50
2018-09-18T18:14:30.359Z,26.50
2018-09-18T18:16:58.542Z,26.50
2018-09-18T18:19:26.799Z,26.40
2018-09-18T18:21:54.975Z,26.40
2018-09-18T18:24:23.198Z,26.30
2018-09-18T18:26:51.360Z,26.30
2018-09-18T18:29:19.536Z,26.20
2018-09-18T18:31:47.690Z,26.20
2018-09-18T18:34:15.930Z,26.20
2018-09-18T18:36:44.253Z,26.10
2018-09-18T18:39:12.494Z,26.10
2018-09-18T18:41:40.787Z,26.10
2018-09-18T18:44:08.950Z,26.10
2018-09-18T18:46:37.142Z,26.00
2018-09-18T18:49:05.366Z,26.00
2018-09-18T18:51:33.562Z,26.00
2018-09-18T18:54:01.851Z,26.00
2018-09-18T18:56:30.160Z,26.00
2018-09-18T18:58:58.352Z,25.90
2018-09-18T19:01:26.566Z,25.90
2018-09-18T19:03:54.745Z,25.90
2018-09-18T19:06:23.000Z,25.80
2018-09-18T19:08:51.124Z,25.80
2018-09-18T19:11:19.557Z,25.80
2018-09-18T19:13:47.757Z,25.70
2018-09-18T19:16:15.927Z,25.70
2018-09-18T19:18:44.095Z,25.70
2018-09-18T19:21:12.228Z,25.60
2018-09-18T19:23:40.415Z,25.60
2018-09-18T19:26:08.710Z,25.60
2018-09-18T19:28:36.843Z,25.50
2018-09-18T19:31:05.025Z,25.50
2018-09-18T19:33:33.267Z,25.50
2018-09-18T19:36:01.651Z,25.50
2018-09-18T19:38:29.823Z,25.40
2018-09-18T19:40:58.051Z,25.40
2018-09-18T19:43:26.220Z,25.30
2018-09-18T19:45:54.474Z,25.30
2018-09-18T19:48:22.680Z,25.30
2018-09-18T19:50:50.819Z,25.30
2018-09-18T19:53:18.975Z,25.20
2018-09-18T19:55:47.150Z,25.20
2018-09-18T19:58:15.328Z,25.10
2018-09-18T20:00:43.480Z,25.10
2018-09-18T20:03:11.709Z,25.10
2018-09-18T20:05:39.870Z,25.00
2018-09-18T20:08:08.071Z,25.00
2018-09-18T20:10:36.245Z,24.90
2018-09-18T20:13:04.451Z,24.90
2018-09-18T20:15:32.641Z,24.80
2018-09-18T20:18:00.984Z,24.80
2018-09-18T20:20:29.181Z,24.70
2018-09-18T20:22:57.475Z,24.70
2018-09-18T20:25:25.679Z,24.70
2018-09-18T20:27:53.863Z,24.60
2018-09-18T20:30:22.036Z,24.60
2018-09-18T20:32:50.202Z,24.60
2018-09-18T20:35:18.350Z,24.50
2018-09-18T20:37:46.511Z,24.40
2018-09-18T20:40:14.672Z,24.40
2018-09-18T20:42:42.844Z,24.40
2018-09-18T20:45:11.138Z,24.30
2018-09-18T20:47:39.359Z,24.30
2018-09-18T20:50:07.582Z,24.20
2018-09-18T20:52:35.730Z,24.20
2018-09-18T20:55:03.886Z,24.20
2018-09-18T20:57:32.034Z,24.20
2018-09-18T21:00:00.202Z,24.10
2018-09-18T21:02:28.360Z,24.10
2018-09-18T21:04:56.499Z,24.00
2018-09-18T21:07:24.650Z,24.00
2018-09-18T21:09:52.815Z,23.90
2018-09-18T21:12:20.955Z,23.90
2018-09-18T21:14:49.112Z,23.90
2018-09-18T21:17:17.286Z,23.80
2018-09-18T21:19:45.458Z,23.70
2018-09-18T21:22:13.602Z,23.70
2018-09-18T21:24:41.751Z,23.60
2018-09-18T21:27:09.927Z,23.50
2018-09-18T21:29:38.082Z,23.40
2018-09-18T21:32:06.283Z,23.40
2018-09-18T21:34:34.405Z,23.30
2018-09-18T21:37:02.530Z,23.20
2018-09-18T21:39:30.680Z,23.20
2018-09-18T21:41:58.818Z,23.10
2018-09-18T21:44:27.026Z,23.00
2018-09-18T21:46:55.170Z,22.90
2018-09-18T21:49:23.342Z,22.90
2018-09-18T21:51:51.500Z,22.80
2018-09-18T21:54:19.642Z,22.80
2018-09-18T21:56:47.836Z,22.80
2018-09-18T21:59:15.954Z,22.70
2018-09-18T22:01:44.157Z,22.70
2018-09-18T22:04:12.312Z,22.70
2018-09-18T22:06:40.479Z,22.70
2018-09-18T22:09:08.633Z,22.70
2018-09-18T22:11:36.806Z,22.70
2018-09-18T22:14:04.986Z,22.70
2018-09-18T22:16:33.156Z,22.70
2018-09-18T22:19:01.326Z,22.60
2018-09-18T22:21:29.490Z,22.60
2018-09-18T22:23:57.650Z,22.60
2018-09-18T22:26:25.814Z,22.60
2018-09-18T22:28:53.968Z,22.60
2018-09-18T22:31:22.138Z,22.60
2018-09-18T22:33:50.298Z,22.60
2018-09-18T22:36:18.567Z,22.60
2018-09-18T22:38:46.725Z,22.50
2018-09-18T22:41:14.911Z,22.50
2018-09-18T22:43:43.071Z,22.50
2018-09-18T22:46:11.312Z,22.50
2018-09-18T22:48:39.476Z,22.50
2018-09-18T22:51:07.630Z,22.40
2018-09-18T22:53:35.804Z,22.40
2018-09-18T22:56:03.996Z,22.40
2018-09-18T22:58:32.171Z,22.30
2018-09-18T23:01:00.322Z,22.30
2018-09-18T23:03:28.486Z,22.20
2018-09-18T23:05:56.625Z,22.20
2018-09-18T23:08:24.766Z,22.20
2018-09-18T23:10:52.946Z,22.20
2018-09-18T23:13:21.106Z,22.10
2018-09-18T23:15:49.306Z,22.10
2018-09-18T23:18:17.498Z,22.10
2018-09-18T23:20:45.651Z,22.10
2018-09-18T23:23:13.790Z,22.10
2018-09-18T23:25:41.927Z,22.00
2018-09-18T23:28:10.186Z,22.00
2018-09-18T23:30:38.346Z,22.00
2018-09-18T23:33:06.309Z,22.00
2018-09-18T23:35:34.438Z,21.90
2018-09-18T23:38:02.575Z,21.90
2018-09-18T23:40:30.770Z,21.90
2018-09-18T23:42:59.742Z,21.80
2018-09-18T23:45:27.886Z,21.80
2018-09-18T23:47:56.021Z,21.80
2018-09-18T23:50:24.170Z,21.80
2018-09-18T23:52:52.309Z,21.80
2018-09-18T23:55:20.455Z,21.70
2018-09-18T23:57:48.606Z,21.70
